North Cedar, Iowa
Current Conditions -  °F | °C
As of 12:54 AM on Monday 22 Dec 2014 (Local Time) from KALO Reporting Station
Light Rain Light Rain  
Wind Chill: 28°   Ceiling: 800
Heat Index: 37°   Visibility: 6mi
Dew Point: 36°   Wind: 16mph
Humidity: 96%   Direction: 160°SSE
Pressure: 29.79"   Gusts: NA
Location:  42.5035°N, 92.4936°W
Report Text: KALO 220654Z AUTO 16014KT 6SM -RA BR OVC008 03/02 A2979 RMK AO2 RAE01B36UPB37E38 SLP093 P0001 T00280022
Loading
Personal Weather Stations






























Interactive Weather Map New forecast layout! Learn more

10-Day Weather Forecast

Advertisements
Track Severe Weather on mobile